PACV METAR and TAF weather

Enter ICAO airport designator
Station Type Date Time Source
PACV METAR 2019/04/18 21:53 UTC NOAA

PACV 182153Z 25003KT 8SM -RA BKN021 OVC027 07/03 A2934 RMK AO2 SLP937 P0001 T00670033


Station Type Date Time Source
PACV Decoded METAR 2019/04/18 21:53 UTC NOAA

MERLE K. SMITH AIRPORT, AK, United States (PACV) 60-30N 145-29W 13M
Apr 18, 2019 - 05:53 PM EDT / 2019.04.18 2153 UTC
Wind: from the WSW (250 degrees) at 3 MPH (3 KT):0
Visibility: 8 mile(s):0
Sky conditions: overcast
Weather: light rain
Precipitation last hour: 0.01 inches
Temperature: 44.1 F (6.7 C)
Dew Point: 37.9 F (3.3 C)
Relative Humidity: 78%
Pressure (altimeter): 29.34 in. Hg (993 hPa)
ob: PACV 182153Z 25003KT 8SM -RA BKN021 OVC027 07/03 A2934 RMK AO2 SLP937 P0001 T00670033
cycle: 22

Station Type Date Time Source
PACV TAF 2019/04/18 18:36 UTC NOAA

TAF PACV 181734Z 1818/1918 07004KT P6SM -RA SCT025 OVC035
FM190000 09007KT 6SM -RA OVC025
FM190600 11010KT 5SM -RA BKN012 OVC025
FM191200 11010KT 2SM -RASN BKN012 OVC025

Example: see airport list